PWSweather.com
Personal Weather Stations
Station Observations
OINOFYTA
Oinofyta Greece, OinofytaGR 320 11

Oinofyta GreeceOinofytaGR 320 11

Lat: 38.3080648, Lon: 23.6391172

Elevation: 354

Station Type: ProWeatherStation 1080

http://oinofytaweather.gr/

High Low Average
Temperature 90.5°F32.5°F 68.4°F20.2°F 80.8°F27.1°F
Dew Point 63.5°F17.5°F 53.1°F11.7°F 58.2°F14.6°F
Winds 12.1 mph -19.5 mph - Calm Calm 5.2 mph 8.4 mph
Wind Gusts 23.5 mph37.8 mph 1.6 mph2.6 mph 11.7 mph18.8 mph
Humidity 70% 29% 48%
Pressure 30.11 in1019.60 in 30.01 in1016.30 in -
Precipitation 0.00 in0.00 in - -
Hour Temp Dew Point Humidity Winds Wind Gusts Pressure Precip Precip Rate Daily Precip Total
12:00 AM 72.1°F22.3°C 57.0°F13.9°C 59% 3.9 mph WSW6.3 kmh WSW 8.3 mph13.4 kmh 30.11 in1019.6 mb 0.00 in0.0 mm 0.00 in0.0 mm 0.00 in0.0 mm
12:05 AM 72.0°F22.2°C 56.9°F13.8°C 59% 3.6 mph SW5.8 kmh SW 6.9 mph11.1 kmh 30.11 in1019.6 mb 0.00 in0.0 mm 0.00 in0.0 mm 0.00 in0.0 mm
12:10 AM 71.8°F22.1°C 57.2°F14.0°C 60% 2.8 mph SW4.5 kmh SW 6.0 mph9.7 kmh 30.11 in1019.6 mb 0.00 in0.0 mm 0.00 in0.0 mm 0.00 in0.0 mm
12:15 AM 71.4°F21.9°C 56.8°F13.8°C 60% 2.4 mph SW3.9 kmh SW 5.4 mph8.7 kmh 30.11 in1019.6 mb 0.00 in0.0 mm 0.00 in0.0 mm 0.00 in0.0 mm
12:20 AM 71.1°F21.7°C 57.4°F14.1°C 62% 2.5 mph SW4.0 kmh SW 6.9 mph11.1 kmh 30.11 in1019.6 mb 0.00 in0.0 mm 0.00 in0.0 mm 0.00 in0.0 mm
12:25 AM 71.2°F21.8°C 57.6°F14.2°C 62% 2.6 mph WSW4.2 kmh WSW 6.9 mph11.1 kmh 30.10 in1019.3 mb 0.00 in0.0 mm 0.00 in0.0 mm 0.00 in0.0 mm
12:30 AM 71.2°F21.8°C 57.6°F14.2°C 62% 2.2 mph SW3.5 kmh SW 5.4 mph8.7 kmh 30.11 in1019.6 mb 0.00 in0.0 mm 0.00 in0.0 mm 0.00 in0.0 mm
12:35 AM 71.2°F21.8°C 57.6°F14.2°C 62% 2.1 mph SW3.4 kmh SW 5.4 mph8.7 kmh 30.11 in1019.6 mb 0.00 in0.0 mm 0.00 in0.0 mm 0.00 in0.0 mm
12:40 AM 71.2°F21.8°C 57.6°F14.2°C 62% 1.4 mph SW2.3 kmh SW 5.4 mph8.7 kmh 30.11 in1019.6 mb 0.00 in0.0 mm 0.00 in0.0 mm 0.00 in0.0 mm
12:45 AM 71.1°F21.7°C 57.4°F14.1°C 62% 1.1 mph SW1.8 kmh SW 3.8 mph6.1 kmh 30.11 in1019.6 mb 0.00 in0.0 mm 0.00 in0.0 mm 0.00 in0.0 mm
12:50 AM 71.1°F21.7°C 57.4°F14.1°C 62% 1.9 mph SW3.1 kmh SW 4.5 mph7.2 kmh 30.11 in1019.6 mb 0.00 in0.0 mm 0.00 in0.0 mm 0.00 in0.0 mm
12:55 AM 71.1°F21.7°C 57.4°F14.1°C 62% 1.3 mph SW2.1 kmh SW 4.5 mph7.2 kmh 30.11 in1019.6 mb 0.00 in0.0 mm 0.00 in0.0 mm 0.00 in0.0 mm
01:00 AM 70.9°F21.6°C 57.2°F14.0°C 62% 0.3 mph S0.5 kmh S 3.1 mph5.0 kmh 30.11 in1019.6 mb 0.00 in0.0 mm 0.00 in0.0 mm 0.00 in0.0 mm
01:05 AM 70.9°F21.6°C 57.7°F14.3°C 63% 0.1 mph SE0.2 kmh SE 1.6 mph2.6 kmh 30.11 in1019.6 mb 0.00 in0.0 mm 0.00 in0.0 mm 0.00 in0.0 mm
01:10 AM 70.7°F21.5°C 57.5°F14.2°C 63% 0.4 mph SE0.6 kmh SE 1.6 mph2.6 kmh 30.11 in1019.6 mb 0.00 in0.0 mm 0.00 in0.0 mm 0.00 in0.0 mm
01:15 AM 70.2°F21.2°C 57.0°F13.9°C 63% 0.5 mph E0.8 kmh E 1.6 mph2.6 kmh 30.11 in1019.6 mb 0.00 in0.0 mm 0.00 in0.0 mm 0.00 in0.0 mm
01:20 AM 69.3°F20.7°C 57.4°F14.1°C 66% 0.9 mph ENE1.4 kmh ENE 3.8 mph6.1 kmh 30.11 in1019.6 mb 0.00 in0.0 mm 0.00 in0.0 mm 0.00 in0.0 mm
01:25 AM 69.3°F20.7°C 57.4°F14.1°C 66% 1.0 mph WNW1.6 kmh WNW 3.8 mph6.1 kmh 30.10 in1019.3 mb 0.00 in0.0 mm 0.00 in0.0 mm 0.00 in0.0 mm
01:30 AM 69.1°F20.6°C 57.7°F14.3°C 67% 0.9 mph NNE1.4 kmh NNE 3.8 mph6.1 kmh 30.11 in1019.6 mb 0.00 in0.0 mm 0.00 in0.0 mm 0.00 in0.0 mm
01:35 AM 69.1°F20.6°C 57.7°F14.3°C 67% 0.8 mph ENE1.3 kmh ENE 2.2 mph3.5 kmh 30.11 in1019.6 mb 0.00 in0.0 mm 0.00 in0.0 mm 0.00 in0.0 mm
01:40 AM 69.1°F20.6°C 57.7°F14.3°C 67% 0.4 mph SE0.6 kmh SE 2.2 mph3.5 kmh 30.11 in1019.6 mb 0.00 in0.0 mm 0.00 in0.0 mm 0.00 in0.0 mm
01:45 AM 69.3°F20.7°C 57.9°F14.4°C 67% 0.2 mph S0.3 kmh S 1.6 mph2.6 kmh 30.10 in1019.3 mb 0.00 in0.0 mm 0.00 in0.0 mm 0.00 in0.0 mm
01:50 AM 69.4°F20.8°C 58.0°F14.4°C 67% 0.1 mph W0.2 kmh W 1.6 mph2.6 kmh 30.10 in1019.3 mb 0.00 in0.0 mm 0.00 in0.0 mm 0.00 in0.0 mm
01:55 AM 69.1°F20.6°C 57.7°F14.3°C 67% 0.1 mph NW0.2 kmh NW 1.6 mph2.6 kmh 30.10 in1019.3 mb 0.00 in0.0 mm 0.00 in0.0 mm 0.00 in0.0 mm
02:00 AM 69.3°F20.7°C 57.9°F14.4°C 67% 0.7 mph E1.1 kmh E 3.1 mph5.0 kmh 30.10 in1019.3 mb 0.00 in0.0 mm 0.00 in0.0 mm 0.00 in0.0 mm
02:05 AM 68.7°F20.4°C 57.8°F14.3°C 68% 1.3 mph ESE2.1 kmh ESE 3.8 mph6.1 kmh 30.10 in1019.3 mb 0.00 in0.0 mm 0.00 in0.0 mm 0.00 in0.0 mm
02:10 AM 68.7°F20.4°C 57.8°F14.3°C 68% 1.0 mph SSW1.6 kmh SSW 3.8 mph6.1 kmh 30.10 in1019.3 mb 0.00 in0.0 mm 0.00 in0.0 mm 0.00 in0.0 mm
02:15 AM 68.9°F20.5°C 57.9°F14.4°C 68% 0.3 mph WSW0.5 kmh WSW 3.1 mph5.0 kmh 30.10 in1019.3 mb 0.00 in0.0 mm 0.00 in0.0 mm 0.00 in0.0 mm
02:20 AM 68.5°F20.3°C 58.0°F14.4°C 69% 0.2 mph SW0.3 kmh SW 2.2 mph3.5 kmh 30.10 in1019.3 mb 0.00 in0.0 mm 0.00 in0.0 mm 0.00 in0.0 mm
02:25 AM 69.1°F20.6°C 58.1°F14.5°C 68% 0.4 mph WSW0.6 kmh WSW 2.2 mph3.5 kmh 30.10 in1019.3 mb 0.00 in0.0 mm 0.00 in0.0 mm 0.00 in0.0 mm
02:30 AM 68.7°F20.4°C 57.8°F14.3°C 68% 0.4 mph NNW0.6 kmh NNW 2.2 mph3.5 kmh 30.10 in1019.3 mb 0.00 in0.0 mm 0.00 in0.0 mm 0.00 in0.0 mm
02:35 AM 68.7°F20.4°C 58.2°F14.6°C 69% 0.1 mph NNW0.2 kmh NNW 2.2 mph3.5 kmh 30.10 in1019.3 mb 0.00 in0.0 mm 0.00 in0.0 mm 0.00 in0.0 mm
02:40 AM 69.3°F20.7°C 58.3°F14.6°C 68% Calm Calm 3.8 mph6.1 kmh 30.10 in1019.3 mb 0.00 in0.0 mm 0.00 in0.0 mm 0.00 in0.0 mm
02:45 AM 69.6°F20.9°C 58.2°F14.6°C 67% 0.6 mph SW1.0 kmh SW 3.8 mph6.1 kmh 30.10 in1019.3 mb 0.00 in0.0 mm 0.00 in0.0 mm 0.00 in0.0 mm
02:50 AM 69.6°F20.9°C 57.8°F14.3°C 66% 1.2 mph SW1.9 kmh SW 3.8 mph6.1 kmh 30.10 in1019.3 mb 0.00 in0.0 mm 0.00 in0.0 mm 0.00 in0.0 mm
02:55 AM 69.6°F20.9°C 57.8°F14.3°C 66% 1.4 mph WSW2.3 kmh WSW 4.5 mph7.2 kmh 30.10 in1019.3 mb 0.00 in0.0 mm 0.00 in0.0 mm 0.00 in0.0 mm
03:00 AM 69.4°F20.8°C 57.6°F14.2°C 66% 1.7 mph WSW2.7 kmh WSW 4.5 mph7.2 kmh 30.10 in1019.3 mb 0.00 in0.0 mm 0.00 in0.0 mm 0.00 in0.0 mm
03:05 AM 69.3°F20.7°C 57.4°F14.1°C 66% 1.8 mph SW2.9 kmh SW 5.4 mph8.7 kmh 30.10 in1019.3 mb 0.00 in0.0 mm 0.00 in0.0 mm 0.00 in0.0 mm
03:10 AM 69.1°F20.6°C 57.7°F14.3°C 67% 1.6 mph SW2.6 kmh SW 5.4 mph8.7 kmh 30.10 in1019.3 mb 0.00 in0.0 mm 0.00 in0.0 mm 0.00 in0.0 mm
03:15 AM 68.9°F20.5°C 57.5°F14.2°C 67% 1.3 mph SW2.1 kmh SW 4.5 mph7.2 kmh 30.10 in1019.3 mb 0.00 in0.0 mm 0.00 in0.0 mm 0.00 in0.0 mm
03:20 AM 68.9°F20.5°C 57.5°F14.2°C 67% 0.7 mph WSW1.1 kmh WSW 3.8 mph6.1 kmh 30.10 in1019.3 mb 0.00 in0.0 mm 0.00 in0.0 mm 0.00 in0.0 mm
03:25 AM 68.9°F20.5°C 57.5°F14.2°C 67% 0.6 mph WSW1.0 kmh WSW 3.1 mph5.0 kmh 30.09 in1019.0 mb 0.00 in0.0 mm 0.00 in0.0 mm 0.00 in0.0 mm
03:30 AM 68.9°F20.5°C 57.5°F14.2°C 67% 0.8 mph WSW1.3 kmh WSW 3.1 mph5.0 kmh 30.09 in1019.0 mb 0.00 in0.0 mm 0.00 in0.0 mm 0.00 in0.0 mm
03:35 AM 69.3°F20.7°C 57.4°F14.1°C 66% 1.0 mph W1.6 kmh W 4.5 mph7.2 kmh 30.09 in1019.0 mb 0.00 in0.0 mm 0.00 in0.0 mm 0.00 in0.0 mm
03:40 AM 69.1°F20.6°C 57.7°F14.3°C 67% 0.9 mph WSW1.4 kmh WSW 4.5 mph7.2 kmh 30.09 in1019.0 mb 0.00 in0.0 mm 0.00 in0.0 mm 0.00 in0.0 mm
03:45 AM 69.1°F20.6°C 57.7°F14.3°C 67% 1.4 mph SW2.3 kmh SW 5.4 mph8.7 kmh 30.09 in1019.0 mb 0.00 in0.0 mm 0.00 in0.0 mm 0.00 in0.0 mm
03:50 AM 69.1°F20.6°C 57.7°F14.3°C 67% 1.5 mph SSW2.4 kmh SSW 5.4 mph8.7 kmh 30.09 in1019.0 mb 0.00 in0.0 mm 0.00 in0.0 mm 0.00 in0.0 mm
03:55 AM 69.1°F20.6°C 57.7°F14.3°C 67% 0.5 mph S0.8 kmh S 3.1 mph5.0 kmh 30.09 in1019.0 mb 0.00 in0.0 mm 0.00 in0.0 mm 0.00 in0.0 mm
04:00 AM 68.9°F20.5°C 57.5°F14.2°C 67% 0.2 mph SSW0.3 kmh SSW 1.6 mph2.6 kmh 30.09 in1019.0 mb 0.00 in0.0 mm 0.00 in0.0 mm 0.00 in0.0 mm
04:05 AM 68.7°F20.4°C 57.3°F14.1°C 67% 0.5 mph SW0.8 kmh SW 3.1 mph5.0 kmh 30.09 in1019.0 mb 0.00 in0.0 mm 0.00 in0.0 mm 0.00 in0.0 mm
04:10 AM 68.7°F20.4°C 57.3°F14.1°C 67% 0.4 mph SW0.6 kmh SW 3.1 mph5.0 kmh 30.09 in1019.0 mb 0.00 in0.0 mm 0.00 in0.0 mm 0.00 in0.0 mm
04:15 AM 68.7°F20.4°C 57.8°F14.3°C 68% 0.1 mph SW0.2 kmh SW 2.2 mph3.5 kmh 30.09 in1019.0 mb 0.00 in0.0 mm 0.00 in0.0 mm 0.00 in0.0 mm
04:20 AM 68.9°F20.5°C 57.5°F14.2°C 67% Calm Calm 1.6 mph2.6 kmh 30.09 in1019.0 mb 0.00 in0.0 mm 0.00 in0.0 mm 0.00 in0.0 mm
04:25 AM 68.9°F20.5°C 57.5°F14.2°C 67% Calm Calm 1.6 mph2.6 kmh 30.09 in1019.0 mb 0.00 in0.0 mm 0.00 in0.0 mm 0.00 in0.0 mm
04:30 AM 68.9°F20.5°C 57.5°F14.2°C 67% 0.3 mph SW0.5 kmh SW 3.1 mph5.0 kmh 30.09 in1019.0 mb 0.00 in0.0 mm 0.00 in0.0 mm 0.00 in0.0 mm
04:35 AM 68.7°F20.4°C 57.3°F14.1°C 67% 0.2 mph SW0.3 kmh SW 3.1 mph5.0 kmh 30.09 in1019.0 mb 0.00 in0.0 mm 0.00 in0.0 mm 0.00 in0.0 mm
04:40 AM 68.9°F20.5°C 57.9°F14.4°C 68% 0.4 mph SW0.6 kmh SW 3.1 mph5.0 kmh 30.09 in1019.0 mb 0.00 in0.0 mm 0.00 in0.0 mm 0.00 in0.0 mm
04:45 AM 68.5°F20.3°C 57.6°F14.2°C 68% 0.4 mph WSW0.6 kmh WSW 3.1 mph5.0 kmh 30.09 in1019.0 mb 0.00 in0.0 mm 0.00 in0.0 mm 0.00 in0.0 mm
04:50 AM 68.7°F20.4°C 57.8°F14.3°C 68% 0.3 mph W0.5 kmh W 2.2 mph3.5 kmh 30.09 in1019.0 mb 0.00 in0.0 mm 0.00 in0.0 mm 0.00 in0.0 mm
04:55 AM 68.9°F20.5°C 57.9°F14.4°C 68% 1.0 mph WSW1.6 kmh WSW 3.1 mph5.0 kmh 30.09 in1019.0 mb 0.00 in0.0 mm 0.00 in0.0 mm 0.00 in0.0 mm
05:00 AM 68.9°F20.5°C 57.9°F14.4°C 68% 1.2 mph SW1.9 kmh SW 3.1 mph5.0 kmh 30.09 in1019.0 mb 0.00 in0.0 mm 0.00 in0.0 mm 0.00 in0.0 mm
05:05 AM 68.5°F20.3°C 57.6°F14.2°C 68% 1.5 mph WSW2.4 kmh WSW 4.5 mph7.2 kmh 30.09 in1019.0 mb 0.00 in0.0 mm 0.00 in0.0 mm 0.00 in0.0 mm
05:10 AM 68.7°F20.4°C 57.8°F14.3°C 68% 2.5 mph WSW4.0 kmh WSW 7.6 mph12.2 kmh 30.09 in1019.0 mb 0.00 in0.0 mm 0.00 in0.0 mm 0.00 in0.0 mm
05:15 AM 68.7°F20.4°C 57.8°F14.3°C 68% 3.1 mph WSW5.0 kmh WSW 7.6 mph12.2 kmh 30.09 in1019.0 mb 0.00 in0.0 mm 0.00 in0.0 mm 0.00 in0.0 mm
05:20 AM 68.7°F20.4°C 57.8°F14.3°C 68% 3.3 mph WSW5.3 kmh WSW 7.6 mph12.2 kmh 30.09 in1019.0 mb 0.00 in0.0 mm 0.00 in0.0 mm 0.00 in0.0 mm
05:25 AM 68.9°F20.5°C 57.9°F14.4°C 68% 2.9 mph SW4.7 kmh SW 6.9 mph11.1 kmh 30.09 in1019.0 mb 0.00 in0.0 mm 0.00 in0.0 mm 0.00 in0.0 mm
05:30 AM 68.7°F20.4°C 57.8°F14.3°C 68% 2.2 mph SW3.5 kmh SW 6.0 mph9.7 kmh 30.09 in1019.0 mb 0.00 in0.0 mm 0.00 in0.0 mm 0.00 in0.0 mm
05:35 AM 68.5°F20.3°C 58.0°F14.4°C 69% 1.3 mph SW2.1 kmh SW 5.4 mph8.7 kmh 30.09 in1019.0 mb 0.00 in0.0 mm 0.00 in0.0 mm 0.00 in0.0 mm
05:40 AM 68.4°F20.2°C 57.8°F14.3°C 69% 0.5 mph WSW0.8 kmh WSW 3.1 mph5.0 kmh 30.09 in1019.0 mb 0.00 in0.0 mm 0.00 in0.0 mm 0.00 in0.0 mm
05:45 AM 68.4°F20.2°C 57.8°F14.3°C 69% 0.4 mph SW0.6 kmh SW 3.1 mph5.0 kmh 30.09 in1019.0 mb 0.00 in0.0 mm 0.00 in0.0 mm 0.00 in0.0 mm
05:50 AM 68.4°F20.2°C 58.2°F14.6°C 70% 0.6 mph SSW1.0 kmh SSW 3.1 mph5.0 kmh 30.09 in1019.0 mb 0.00 in0.0 mm 0.00 in0.0 mm 0.00 in0.0 mm
05:55 AM 68.5°F20.3°C 58.4°F14.7°C 70% 0.7 mph WSW1.1 kmh WSW 3.1 mph5.0 kmh 30.09 in1019.0 mb 0.00 in0.0 mm 0.00 in0.0 mm 0.00 in0.0 mm
06:00 AM 68.9°F20.5°C 58.3°F14.6°C 69% 0.9 mph WNW1.4 kmh WNW 3.8 mph6.1 kmh 30.09 in1019.0 mb 0.00 in0.0 mm 0.00 in0.0 mm 0.00 in0.0 mm
06:05 AM 69.3°F20.7°C 58.7°F14.8°C 69% 0.9 mph WNW1.4 kmh WNW 3.8 mph6.1 kmh 30.09 in1019.0 mb 0.00 in0.0 mm 0.00 in0.0 mm 0.00 in0.0 mm
06:10 AM 69.4°F20.8°C 58.4°F14.7°C 68% 0.7 mph W1.1 kmh W 3.8 mph6.1 kmh 30.09 in1019.0 mb 0.00 in0.0 mm 0.00 in0.0 mm 0.00 in0.0 mm
06:15 AM 69.6°F20.9°C 58.6°F14.8°C 68% 0.9 mph SW1.4 kmh SW 3.8 mph6.1 kmh 30.09 in1019.0 mb 0.00 in0.0 mm 0.00 in0.0 mm 0.00 in0.0 mm
06:20 AM 69.8°F21.0°C 58.8°F14.9°C 68% 1.1 mph SW1.8 kmh SW 3.8 mph6.1 kmh 30.09 in1019.0 mb 0.00 in0.0 mm 0.00 in0.0 mm 0.00 in0.0 mm
06:25 AM 70.0°F21.1°C 59.0°F15.0°C 68% 1.4 mph SW2.3 kmh SW 3.8 mph6.1 kmh 30.09 in1019.0 mb 0.00 in0.0 mm 0.00 in0.0 mm 0.00 in0.0 mm
06:30 AM 70.3°F21.3°C 58.9°F14.9°C 67% 1.2 mph SW1.9 kmh SW 3.1 mph5.0 kmh 30.10 in1019.3 mb 0.00 in0.0 mm 0.00 in0.0 mm 0.00 in0.0 mm
06:35 AM 70.7°F21.5°C 59.2°F15.1°C 67% 1.0 mph SW1.6 kmh SW 3.1 mph5.0 kmh 30.10 in1019.3 mb 0.00 in0.0 mm 0.00 in0.0 mm 0.00 in0.0 mm
06:40 AM 71.1°F21.7°C 59.2°F15.1°C 66% 1.1 mph SW1.8 kmh SW 3.8 mph6.1 kmh 30.09 in1019.0 mb 0.00 in0.0 mm 0.00 in0.0 mm 0.00 in0.0 mm
06:45 AM 71.8°F22.1°C 59.4°F15.2°C 65% 2.1 mph SW3.4 kmh SW 7.6 mph12.2 kmh 30.09 in1019.0 mb 0.00 in0.0 mm 0.00 in0.0 mm 0.00 in0.0 mm
06:50 AM 72.5°F22.5°C 59.2°F15.1°C 63% 2.3 mph SW3.7 kmh SW 7.6 mph12.2 kmh 30.09 in1019.0 mb 0.00 in0.0 mm 0.00 in0.0 mm 0.00 in0.0 mm
06:55 AM 73.2°F22.9°C 59.5°F15.3°C 62% 2.2 mph WSW3.5 kmh WSW 7.6 mph12.2 kmh 30.10 in1019.3 mb 0.00 in0.0 mm 0.00 in0.0 mm 0.00 in0.0 mm
07:00 AM 73.6°F23.1°C 59.3°F15.2°C 61% 2.8 mph SW4.5 kmh SW 7.6 mph12.2 kmh 30.09 in1019.0 mb 0.00 in0.0 mm 0.00 in0.0 mm 0.00 in0.0 mm
07:05 AM 74.3°F23.5°C 60.0°F15.6°C 61% 3.2 mph SW5.1 kmh SW 8.3 mph13.4 kmh 30.09 in1019.0 mb 0.00 in0.0 mm 0.00 in0.0 mm 0.00 in0.0 mm
07:10 AM 74.7°F23.7°C 59.4°F15.2°C 59% 3.8 mph SW6.1 kmh SW 8.3 mph13.4 kmh 30.09 in1019.0 mb 0.00 in0.0 mm 0.00 in0.0 mm 0.00 in0.0 mm
07:15 AM 75.0°F23.9°C 59.8°F15.4°C 59% 3.7 mph SW6.0 kmh SW 8.3 mph13.4 kmh 30.10 in1019.3 mb 0.00 in0.0 mm 0.00 in0.0 mm 0.00 in0.0 mm
07:20 AM 75.7°F24.3°C 60.4°F15.8°C 59% 3.5 mph SW5.6 kmh SW 7.6 mph12.2 kmh 30.09 in1019.0 mb 0.00 in0.0 mm 0.00 in0.0 mm 0.00 in0.0 mm
07:25 AM 76.1°F24.5°C 60.8°F16.0°C 59% 3.3 mph SW5.3 kmh SW 7.6 mph12.2 kmh 30.09 in1019.0 mb 0.00 in0.0 mm 0.00 in0.0 mm 0.00 in0.0 mm
07:30 AM 77.2°F25.1°C 61.8°F16.6°C 59% 2.1 mph SW3.4 kmh SW 5.4 mph8.7 kmh 30.09 in1019.0 mb 0.00 in0.0 mm 0.00 in0.0 mm 0.00 in0.0 mm
07:35 AM 78.3°F25.7°C 62.8°F17.1°C 59% 1.5 mph W2.4 kmh W 6.9 mph11.1 kmh 30.09 in1019.0 mb 0.00 in0.0 mm 0.00 in0.0 mm 0.00 in0.0 mm
07:40 AM 80.1°F26.7°C 63.0°F17.2°C 56% 3.2 mph NW5.1 kmh NW 10.7 mph17.2 kmh 30.09 in1019.0 mb 0.00 in0.0 mm 0.00 in0.0 mm 0.00 in0.0 mm
07:45 AM 80.8°F27.1°C 63.2°F17.3°C 55% 5.2 mph NW8.4 kmh NW 13.0 mph20.9 kmh 30.09 in1019.0 mb 0.00 in0.0 mm 0.00 in0.0 mm 0.00 in0.0 mm
07:50 AM 81.1°F27.3°C 63.5°F17.5°C 55% 6.0 mph NNW9.7 kmh NNW 13.0 mph20.9 kmh 30.09 in1019.0 mb 0.00 in0.0 mm 0.00 in0.0 mm 0.00 in0.0 mm
07:55 AM 81.3°F27.4°C 63.1°F17.3°C 54% 6.8 mph NNW10.9 kmh NNW 13.6 mph21.9 kmh 30.09 in1019.0 mb 0.00 in0.0 mm 0.00 in0.0 mm 0.00 in0.0 mm
08:00 AM 81.7°F27.6°C 62.9°F17.2°C 53% 6.8 mph NW10.9 kmh NW 15.9 mph25.6 kmh 30.09 in1019.0 mb 0.00 in0.0 mm 0.00 in0.0 mm 0.00 in0.0 mm
08:05 AM 81.7°F27.6°C 62.4°F16.9°C 52% 6.6 mph NNW10.6 kmh NNW 15.9 mph25.6 kmh 30.09 in1019.0 mb 0.00 in0.0 mm 0.00 in0.0 mm 0.00 in0.0 mm
08:10 AM 82.2°F27.9°C 62.9°F17.2°C 52% 6.5 mph NW10.5 kmh NW 14.5 mph23.3 kmh 30.09 in1019.0 mb 0.00 in0.0 mm 0.00 in0.0 mm 0.00 in0.0 mm
08:15 AM 82.2°F27.9°C 62.3°F16.8°C 51% 7.3 mph NW11.7 kmh NW 14.5 mph23.3 kmh 30.08 in1018.6 mb 0.00 in0.0 mm 0.00 in0.0 mm 0.00 in0.0 mm
08:20 AM 82.4°F28.0°C 61.9°F16.6°C 50% 8.6 mph NW13.8 kmh NW 15.2 mph24.5 kmh 30.09 in1019.0 mb 0.00 in0.0 mm 0.00 in0.0 mm 0.00 in0.0 mm
08:25 AM 82.6°F28.1°C 61.5°F16.4°C 49% 9.0 mph NNW14.5 kmh NNW 16.8 mph27.0 kmh 30.08 in1018.6 mb 0.00 in0.0 mm 0.00 in0.0 mm 0.00 in0.0 mm
08:30 AM 82.9°F28.3°C 61.9°F16.6°C 49% 8.8 mph NNW14.2 kmh NNW 17.4 mph28.0 kmh 30.09 in1019.0 mb 0.00 in0.0 mm 0.00 in0.0 mm 0.00 in0.0 mm
08:35 AM 83.3°F28.5°C 61.0°F16.1°C 47% 7.9 mph NNW12.7 kmh NNW 17.4 mph28.0 kmh 30.08 in1018.6 mb 0.00 in0.0 mm 0.00 in0.0 mm 0.00 in0.0 mm
08:40 AM 83.8°F28.8°C 61.5°F16.4°C 47% 7.4 mph NNW11.9 kmh NNW 15.9 mph25.6 kmh 30.09 in1019.0 mb 0.00 in0.0 mm 0.00 in0.0 mm 0.00 in0.0 mm
08:45 AM 83.8°F28.8°C 60.9°F16.1°C 46% 7.9 mph NW12.7 kmh NW 15.9 mph25.6 kmh 30.09 in1019.0 mb 0.00 in0.0 mm 0.00 in0.0 mm 0.00 in0.0 mm
08:50 AM 83.8°F28.8°C 60.9°F16.1°C 46% 8.4 mph NW13.5 kmh NW 16.8 mph27.0 kmh 30.09 in1019.0 mb 0.00 in0.0 mm 0.00 in0.0 mm 0.00 in0.0 mm
08:55 AM 84.2°F29.0°C 60.6°F15.9°C 45% 8.4 mph NNW13.5 kmh NNW 18.3 mph29.5 kmh 30.09 in1019.0 mb 0.00 in0.0 mm 0.00 in0.0 mm 0.00 in0.0 mm
09:00 AM 84.4°F29.1°C 60.1°F15.6°C 44% 8.6 mph NNW13.8 kmh NNW 18.3 mph29.5 kmh 30.09 in1019.0 mb 0.00 in0.0 mm 0.00 in0.0 mm 0.00 in0.0 mm
09:05 AM 84.9°F29.4°C 61.3°F16.3°C 45% 8.3 mph NNW13.4 kmh NNW 14.5 mph23.3 kmh 30.09 in1019.0 mb 0.00 in0.0 mm 0.00 in0.0 mm 0.00 in0.0 mm
09:10 AM 84.9°F29.4°C 60.6°F15.9°C 44% 8.3 mph NNW13.4 kmh NNW 17.4 mph28.0 kmh 30.09 in1019.0 mb 0.00 in0.0 mm 0.00 in0.0 mm 0.00 in0.0 mm
09:15 AM 85.3°F29.6°C 61.6°F16.4°C 45% 7.8 mph N12.6 kmh N 17.4 mph28.0 kmh 30.09 in1019.0 mb 0.00 in0.0 mm 0.00 in0.0 mm 0.00 in0.0 mm
09:20 AM 85.8°F29.9°C 60.8°F16.0°C 43% 7.0 mph N11.3 kmh N 15.9 mph25.6 kmh 30.09 in1019.0 mb 0.00 in0.0 mm 0.00 in0.0 mm 0.00 in0.0 mm
09:25 AM 85.8°F29.9°C 60.8°F16.0°C 43% 7.4 mph NNW11.9 kmh NNW 15.2 mph24.5 kmh 30.09 in1019.0 mb 0.00 in0.0 mm 0.00 in0.0 mm 0.00 in0.0 mm
09:30 AM 86.4°F30.2°C 60.6°F15.9°C 42% 7.2 mph NNW11.6 kmh NNW 15.2 mph24.5 kmh 30.09 in1019.0 mb 0.00 in0.0 mm 0.00 in0.0 mm 0.00 in0.0 mm
09:35 AM 86.5°F30.3°C 60.8°F16.0°C 42% 7.2 mph NNW11.6 kmh NNW 15.2 mph24.5 kmh 30.09 in1019.0 mb 0.00 in0.0 mm 0.00 in0.0 mm 0.00 in0.0 mm
09:40 AM 86.5°F30.3°C 60.1°F15.6°C 41% 7.5 mph NW12.1 kmh NW 14.5 mph23.3 kmh 30.09 in1019.0 mb 0.00 in0.0 mm 0.00 in0.0 mm 0.00 in0.0 mm
09:45 AM 86.9°F30.5°C 60.4°F15.8°C 41% 7.3 mph NW11.7 kmh NW 13.6 mph21.9 kmh 30.09 in1019.0 mb 0.00 in0.0 mm 0.00 in0.0 mm 0.00 in0.0 mm
09:50 AM 87.1°F30.6°C 60.6°F15.9°C 41% 7.2 mph NNW11.6 kmh NNW 13.6 mph21.9 kmh 30.09 in1019.0 mb 0.00 in0.0 mm 0.00 in0.0 mm 0.00 in0.0 mm
09:55 AM 87.3°F30.7°C 60.7°F15.9°C 41% 7.4 mph NNW11.9 kmh NNW 15.2 mph24.5 kmh 30.09 in1019.0 mb 0.00 in0.0 mm 0.00 in0.0 mm 0.00 in0.0 mm
10:00 AM 86.7°F30.4°C 60.3°F15.7°C 41% 9.1 mph N14.6 kmh N 18.3 mph29.5 kmh 30.09 in1019.0 mb 0.00 in0.0 mm 0.00 in0.0 mm 0.00 in0.0 mm
10:05 AM 86.7°F30.4°C 60.9°F16.1°C 42% 10.3 mph N16.6 kmh N 18.3 mph29.5 kmh 30.09 in1019.0 mb 0.00 in0.0 mm 0.00 in0.0 mm 0.00 in0.0 mm
10:10 AM 86.7°F30.4°C 60.3°F15.7°C 41% 9.3 mph N15.0 kmh N 16.8 mph27.0 kmh 30.09 in1019.0 mb 0.00 in0.0 mm 0.00 in0.0 mm 0.00 in0.0 mm
10:15 AM 87.1°F30.6°C 60.6°F15.9°C 41% 8.4 mph N13.5 kmh N 16.8 mph27.0 kmh 30.09 in1019.0 mb 0.00 in0.0 mm 0.00 in0.0 mm 0.00 in0.0 mm
10:20 AM 87.4°F30.8°C 60.9°F16.1°C 41% 7.7 mph N12.4 kmh N 15.9 mph25.6 kmh 30.09 in1019.0 mb 0.00 in0.0 mm 0.00 in0.0 mm 0.00 in0.0 mm
10:25 AM 87.6°F30.9°C 61.1°F16.2°C 41% 7.9 mph N12.7 kmh N 16.8 mph27.0 kmh 30.09 in1019.0 mb 0.00 in0.0 mm 0.00 in0.0 mm 0.00 in0.0 mm
10:30 AM 88.2°F31.2°C 61.5°F16.4°C 41% 7.6 mph N12.2 kmh N 16.8 mph27.0 kmh 30.09 in1019.0 mb 0.00 in0.0 mm 0.00 in0.0 mm 0.00 in0.0 mm
10:35 AM 88.3°F31.3°C 61.0°F16.1°C 40% 7.5 mph NNW12.1 kmh NNW 15.2 mph24.5 kmh 30.09 in1019.0 mb 0.00 in0.0 mm 0.00 in0.0 mm 0.00 in0.0 mm
10:40 AM 88.5°F31.4°C 61.9°F16.6°C 41% 7.3 mph N11.7 kmh N 15.2 mph24.5 kmh 30.08 in1018.6 mb 0.00 in0.0 mm 0.00 in0.0 mm 0.00 in0.0 mm
10:45 AM 88.2°F31.2°C 61.5°F16.4°C 41% 7.8 mph N12.6 kmh N 18.3 mph29.5 kmh 30.09 in1019.0 mb 0.00 in0.0 mm 0.00 in0.0 mm 0.00 in0.0 mm
10:50 AM 88.0°F31.1°C 61.4°F16.3°C 41% 8.9 mph NNE14.3 kmh NNE 18.3 mph29.5 kmh 30.09 in1019.0 mb 0.00 in0.0 mm 0.00 in0.0 mm 0.00 in0.0 mm
10:55 AM 87.8°F31.0°C 62.6°F17.0°C 43% 8.1 mph N13.0 kmh N 17.4 mph28.0 kmh 30.08 in1018.6 mb 0.00 in0.0 mm 0.00 in0.0 mm 0.00 in0.0 mm
11:00 AM 88.2°F31.2°C 61.5°F16.4°C 41% 7.9 mph N12.7 kmh N 19.0 mph30.6 kmh 30.08 in1018.6 mb 0.00 in0.0 mm 0.00 in0.0 mm 0.00 in0.0 mm
11:05 AM 88.3°F31.3°C 62.4°F16.9°C 42% 8.8 mph N14.2 kmh N 19.0 mph30.6 kmh 30.08 in1018.6 mb 0.00 in0.0 mm 0.00 in0.0 mm 0.00 in0.0 mm
11:10 AM 89.2°F31.8°C 61.1°F16.2°C 39% 8.0 mph N12.9 kmh N 16.8 mph27.0 kmh 30.09 in1019.0 mb 0.00 in0.0 mm 0.00 in0.0 mm 0.00 in0.0 mm
11:15 AM 88.9°F31.6°C 60.8°F16.0°C 39% 7.8 mph NNE12.6 kmh NNE 21.3 mph34.3 kmh 30.09 in1019.0 mb 0.00 in0.0 mm 0.00 in0.0 mm 0.00 in0.0 mm
11:20 AM 88.5°F31.4°C 59.7°F15.4°C 38% 8.9 mph N14.3 kmh N 21.3 mph34.3 kmh 30.09 in1019.0 mb 0.00 in0.0 mm 0.00 in0.0 mm 0.00 in0.0 mm
11:25 AM 88.5°F31.4°C 60.5°F15.8°C 39% 9.6 mph N15.4 kmh N 20.6 mph33.2 kmh 30.08 in1018.6 mb 0.00 in0.0 mm 0.00 in0.0 mm 0.00 in0.0 mm
11:30 AM 88.9°F31.6°C 60.8°F16.0°C 39% 8.9 mph N14.3 kmh N 17.4 mph28.0 kmh 30.09 in1019.0 mb 0.00 in0.0 mm 0.00 in0.0 mm 0.00 in0.0 mm
11:35 AM 88.5°F31.4°C 60.5°F15.8°C 39% 8.2 mph NNE13.2 kmh NNE 18.3 mph29.5 kmh 30.08 in1018.6 mb 0.00 in0.0 mm 0.00 in0.0 mm 0.00 in0.0 mm
11:40 AM 88.7°F31.5°C 59.9°F15.5°C 38% 9.2 mph NE14.8 kmh NE 19.0 mph30.6 kmh 30.09 in1019.0 mb 0.00 in0.0 mm 0.00 in0.0 mm 0.00 in0.0 mm
11:45 AM 88.7°F31.5°C 60.6°F15.9°C 39% 8.9 mph NE14.3 kmh NE 19.0 mph30.6 kmh 30.09 in1019.0 mb 0.00 in0.0 mm 0.00 in0.0 mm 0.00 in0.0 mm
11:50 AM 88.7°F31.5°C 60.6°F15.9°C 39% 7.9 mph N12.7 kmh N 15.9 mph25.6 kmh 30.09 in1019.0 mb 0.00 in0.0 mm 0.00 in0.0 mm 0.00 in0.0 mm
11:55 AM 88.7°F31.5°C 60.6°F15.9°C 39% 7.5 mph N12.1 kmh N 18.3 mph29.5 kmh 30.08 in1018.6 mb 0.00 in0.0 mm 0.00 in0.0 mm 0.00 in0.0 mm
12:00 PM 88.9°F31.6°C 61.5°F16.4°C 40% 7.4 mph NNE11.9 kmh NNE 18.3 mph29.5 kmh 30.09 in1019.0 mb 0.00 in0.0 mm 0.00 in0.0 mm 0.00 in0.0 mm
12:05 PM 89.2°F31.8°C 60.4°F15.8°C 38% 7.6 mph NNE12.2 kmh NNE 19.7 mph31.7 kmh 30.08 in1018.6 mb 0.00 in0.0 mm 0.00 in0.0 mm 0.00 in0.0 mm
12:10 PM 88.9°F31.6°C 60.8°F16.0°C 39% 8.0 mph NE12.9 kmh NE 19.7 mph31.7 kmh 30.08 in1018.6 mb 0.00 in0.0 mm 0.00 in0.0 mm 0.00 in0.0 mm
12:15 PM 88.9°F31.6°C 59.3°F15.2°C 37% 8.7 mph NE14.0 kmh NE 15.9 mph25.6 kmh 30.09 in1019.0 mb 0.00 in0.0 mm 0.00 in0.0 mm 0.00 in0.0 mm
12:20 PM 89.4°F31.9°C 58.2°F14.6°C 35% 8.8 mph NE14.2 kmh NE 21.3 mph34.3 kmh 30.08 in1018.6 mb 0.00 in0.0 mm 0.00 in0.0 mm 0.00 in0.0 mm
12:25 PM 89.1°F31.7°C 57.9°F14.4°C 35% 9.7 mph NE15.6 kmh NE 21.3 mph34.3 kmh 30.08 in1018.6 mb 0.00 in0.0 mm 0.00 in0.0 mm 0.00 in0.0 mm
12:30 PM 89.8°F32.1°C 58.5°F14.7°C 35% 9.3 mph ENE15.0 kmh ENE 21.3 mph34.3 kmh 30.07 in1018.3 mb 0.00 in0.0 mm 0.00 in0.0 mm 0.00 in0.0 mm
12:35 PM 90.3°F32.4°C 58.2°F14.6°C 34% 8.5 mph NE13.7 kmh NE 20.6 mph33.2 kmh 30.08 in1018.6 mb 0.00 in0.0 mm 0.00 in0.0 mm 0.00 in0.0 mm
12:40 PM 90.1°F32.3°C 57.2°F14.0°C 33% 8.8 mph NNE14.2 kmh NNE 20.6 mph33.2 kmh 30.08 in1018.6 mb 0.00 in0.0 mm 0.00 in0.0 mm 0.00 in0.0 mm
12:45 PM 89.2°F31.8°C 58.1°F14.5°C 35% 9.3 mph NE15.0 kmh NE 22.1 mph35.6 kmh 30.08 in1018.6 mb 0.00 in0.0 mm 0.00 in0.0 mm 0.00 in0.0 mm
12:50 PM 90.0°F32.2°C 57.9°F14.4°C 34% 10.0 mph NNE16.1 kmh NNE 22.1 mph35.6 kmh 30.08 in1018.6 mb 0.00 in0.0 mm 0.00 in0.0 mm 0.00 in0.0 mm
12:55 PM 90.3°F32.4°C 58.2°F14.6°C 34% 9.0 mph NNE14.5 kmh NNE 18.3 mph29.5 kmh 30.08 in1018.6 mb 0.00 in0.0 mm 0.00 in0.0 mm 0.00 in0.0 mm
01:00 PM 90.0°F32.2°C 57.9°F14.4°C 34% 9.4 mph NE15.1 kmh NE 19.7 mph31.7 kmh 30.08 in1018.6 mb 0.00 in0.0 mm 0.00 in0.0 mm 0.00 in0.0 mm
01:05 PM 89.8°F32.1°C 56.9°F13.8°C 33% 10.1 mph NE16.3 kmh NE 19.7 mph31.7 kmh 30.08 in1018.6 mb 0.00 in0.0 mm 0.00 in0.0 mm 0.00 in0.0 mm
01:10 PM 89.4°F31.9°C 57.4°F14.1°C 34% 10.0 mph NE16.1 kmh NE 19.7 mph31.7 kmh 30.08 in1018.6 mb 0.00 in0.0 mm 0.00 in0.0 mm 0.00 in0.0 mm
01:15 PM 89.6°F32.0°C 57.6°F14.2°C 34% 9.8 mph NE15.8 kmh NE 19.7 mph31.7 kmh 30.08 in1018.6 mb 0.00 in0.0 mm 0.00 in0.0 mm 0.00 in0.0 mm
01:20 PM 89.4°F31.9°C 57.4°F14.1°C 34% 9.8 mph NE15.8 kmh NE 19.7 mph31.7 kmh 30.08 in1018.6 mb 0.00 in0.0 mm 0.00 in0.0 mm 0.00 in0.0 mm
01:25 PM 90.3°F32.4°C 57.4°F14.1°C 33% 9.1 mph NNE14.6 kmh NNE 19.7 mph31.7 kmh 30.08 in1018.6 mb 0.00 in0.0 mm 0.00 in0.0 mm 0.00 in0.0 mm
01:30 PM 90.1°F32.3°C 57.2°F14.0°C 33% 8.7 mph NNE14.0 kmh NNE 19.7 mph31.7 kmh 30.08 in1018.6 mb 0.00 in0.0 mm 0.00 in0.0 mm 0.00 in0.0 mm
01:35 PM 89.4°F31.9°C 57.4°F14.1°C 34% 10.1 mph NNE16.3 kmh NNE 19.7 mph31.7 kmh 30.07 in1018.3 mb 0.00 in0.0 mm 0.00 in0.0 mm 0.00 in0.0 mm
01:40 PM 88.9°F31.6°C 56.9°F13.8°C 34% 11.0 mph NNE17.7 kmh NNE 23.5 mph37.8 kmh 30.08 in1018.6 mb 0.00 in0.0 mm 0.00 in0.0 mm 0.00 in0.0 mm
01:45 PM 89.2°F31.8°C 58.8°F14.9°C 36% 10.6 mph NE17.1 kmh NE 23.5 mph37.8 kmh 30.07 in1018.3 mb 0.00 in0.0 mm 0.00 in0.0 mm 0.00 in0.0 mm
01:50 PM 90.3°F32.4°C 57.4°F14.1°C 33% 9.0 mph NNE14.5 kmh NNE 21.3 mph34.3 kmh 30.07 in1018.3 mb 0.00 in0.0 mm 0.00 in0.0 mm 0.00 in0.0 mm
01:55 PM 90.0°F32.2°C 57.1°F13.9°C 33% 8.8 mph NNE14.2 kmh NNE 21.3 mph34.3 kmh 30.07 in1018.3 mb 0.00 in0.0 mm 0.00 in0.0 mm 0.00 in0.0 mm
02:00 PM 90.0°F32.2°C 57.9°F14.4°C 34% 9.2 mph N14.8 kmh N 19.0 mph30.6 kmh 30.07 in1018.3 mb 0.00 in0.0 mm 0.00 in0.0 mm 0.00 in0.0 mm
02:05 PM 89.6°F32.0°C 57.6°F14.2°C 34% 10.0 mph N16.1 kmh N 19.0 mph30.6 kmh 30.07 in1018.3 mb 0.00 in0.0 mm 0.00 in0.0 mm 0.00 in0.0 mm
02:10 PM 89.2°F31.8°C 57.3°F14.1°C 34% 11.2 mph N18.0 kmh N 19.0 mph30.6 kmh 30.07 in1018.3 mb 0.00 in0.0 mm 0.00 in0.0 mm 0.00 in0.0 mm
02:15 PM 89.6°F32.0°C 57.6°F14.2°C 34% 10.2 mph N16.4 kmh N 19.0 mph30.6 kmh 30.07 in1018.3 mb 0.00 in0.0 mm 0.00 in0.0 mm 0.00 in0.0 mm
02:20 PM 90.5°F32.5°C 57.5°F14.2°C 33% 8.2 mph NNE13.2 kmh NNE 17.4 mph28.0 kmh 30.07 in1018.3 mb 0.00 in0.0 mm 0.00 in0.0 mm 0.00 in0.0 mm
02:25 PM 90.3°F32.4°C 56.5°F13.6°C 32% 8.2 mph NNE13.2 kmh NNE 19.7 mph31.7 kmh 30.07 in1018.3 mb 0.00 in0.0 mm 0.00 in0.0 mm 0.00 in0.0 mm
02:30 PM 90.5°F32.5°C 57.5°F14.2°C 33% 8.5 mph N13.7 kmh N 19.7 mph31.7 kmh 30.07 in1018.3 mb 0.00 in0.0 mm 0.00 in0.0 mm 0.00 in0.0 mm
02:35 PM 90.3°F32.4°C 57.4°F14.1°C 33% 8.3 mph N13.4 kmh N 17.4 mph28.0 kmh 30.07 in1018.3 mb 0.00 in0.0 mm 0.00 in0.0 mm 0.00 in0.0 mm
02:40 PM 89.8°F32.1°C 56.9°F13.8°C 33% 9.7 mph N15.6 kmh N 18.3 mph29.5 kmh 30.06 in1017.9 mb 0.00 in0.0 mm 0.00 in0.0 mm 0.00 in0.0 mm
02:45 PM 89.6°F32.0°C 56.7°F13.7°C 33% 10.6 mph N17.1 kmh N 20.6 mph33.2 kmh 30.06 in1017.9 mb 0.00 in0.0 mm 0.00 in0.0 mm 0.00 in0.0 mm
02:50 PM 90.0°F32.2°C 57.1°F13.9°C 33% 10.0 mph NNE16.1 kmh NNE 20.6 mph33.2 kmh 30.06 in1017.9 mb 0.00 in0.0 mm 0.00 in0.0 mm 0.00 in0.0 mm
02:55 PM 89.8°F32.1°C 56.9°F13.8°C 33% 9.3 mph NE15.0 kmh NE 20.6 mph33.2 kmh 30.06 in1017.9 mb 0.00 in0.0 mm 0.00 in0.0 mm 0.00 in0.0 mm
03:00 PM 89.6°F32.0°C 55.9°F13.3°C 32% 9.9 mph N15.9 kmh N 20.6 mph33.2 kmh 30.06 in1017.9 mb 0.00 in0.0 mm 0.00 in0.0 mm 0.00 in0.0 mm
03:05 PM 89.6°F32.0°C 56.7°F13.7°C 33% 9.6 mph N15.4 kmh N 20.6 mph33.2 kmh 30.06 in1017.9 mb 0.00 in0.0 mm 0.00 in0.0 mm 0.00 in0.0 mm
03:10 PM 89.4°F31.9°C 57.4°F14.1°C 34% 8.7 mph NNE14.0 kmh NNE 19.7 mph31.7 kmh 30.06 in1017.9 mb 0.00 in0.0 mm 0.00 in0.0 mm 0.00 in0.0 mm
03:15 PM 90.1°F32.3°C 57.2°F14.0°C 33% 8.2 mph NNE13.2 kmh NNE 19.7 mph31.7 kmh 30.06 in1017.9 mb 0.00 in0.0 mm 0.00 in0.0 mm 0.00 in0.0 mm
03:20 PM 90.5°F32.5°C 55.8°F13.2°C 31% 8.0 mph NNE12.9 kmh NNE 19.7 mph31.7 kmh 30.06 in1017.9 mb 0.00 in0.0 mm 0.00 in0.0 mm 0.00 in0.0 mm
03:25 PM 89.6°F32.0°C 55.9°F13.3°C 32% 10.2 mph N16.4 kmh N 22.8 mph36.7 kmh 30.06 in1017.9 mb 0.00 in0.0 mm 0.00 in0.0 mm 0.00 in0.0 mm
03:30 PM 89.4°F31.9°C 55.7°F13.2°C 32% 12.1 mph NNW19.5 kmh NNW 22.8 mph36.7 kmh 30.05 in1017.6 mb 0.00 in0.0 mm 0.00 in0.0 mm 0.00 in0.0 mm
03:35 PM 89.6°F32.0°C 55.0°F12.8°C 31% 10.3 mph N16.6 kmh N 22.1 mph35.6 kmh 30.05 in1017.6 mb 0.00 in0.0 mm 0.00 in0.0 mm 0.00 in0.0 mm
03:40 PM 90.1°F32.3°C 56.4°F13.6°C 32% 8.2 mph NNE13.2 kmh NNE 19.7 mph31.7 kmh 30.05 in1017.6 mb 0.00 in0.0 mm 0.00 in0.0 mm 0.00 in0.0 mm
03:45 PM 90.5°F32.5°C 55.8°F13.2°C 31% 7.7 mph NNE12.4 kmh NNE 19.7 mph31.7 kmh 30.05 in1017.6 mb 0.00 in0.0 mm 0.00 in0.0 mm 0.00 in0.0 mm
03:50 PM 90.5°F32.5°C 54.9°F12.7°C 30% 7.9 mph NNE12.7 kmh NNE 15.2 mph24.5 kmh 30.05 in1017.6 mb 0.00 in0.0 mm 0.00 in0.0 mm 0.00 in0.0 mm
03:55 PM 90.1°F32.3°C 55.5°F13.1°C 31% 8.0 mph NNE12.9 kmh NNE 17.4 mph28.0 kmh 30.06 in1017.9 mb 0.00 in0.0 mm 0.00 in0.0 mm 0.00 in0.0 mm
04:00 PM 90.5°F32.5°C 54.9°F12.7°C 30% 7.5 mph N12.1 kmh N 17.4 mph28.0 kmh 30.05 in1017.6 mb 0.00 in0.0 mm 0.00 in0.0 mm 0.00 in0.0 mm
04:05 PM 90.3°F32.4°C 54.7°F12.6°C 30% 8.1 mph NNE13.0 kmh NNE 15.9 mph25.6 kmh 30.04 in1017.3 mb 0.00 in0.0 mm 0.00 in0.0 mm 0.00 in0.0 mm
04:10 PM 89.8°F32.1°C 55.2°F12.9°C 31% 7.4 mph NE11.9 kmh NE 15.9 mph25.6 kmh 30.04 in1017.3 mb 0.00 in0.0 mm 0.00 in0.0 mm 0.00 in0.0 mm
04:15 PM 89.8°F32.1°C 53.3°F11.8°C 29% 7.2 mph N11.6 kmh N 17.4 mph28.0 kmh 30.04 in1017.3 mb 0.00 in0.0 mm 0.00 in0.0 mm 0.00 in0.0 mm
04:20 PM 89.8°F32.1°C 56.0°F13.3°C 32% 8.6 mph N13.8 kmh N 17.4 mph28.0 kmh 30.05 in1017.6 mb 0.00 in0.0 mm 0.00 in0.0 mm 0.00 in0.0 mm
04:25 PM 89.8°F32.1°C 55.2°F12.9°C 31% 8.0 mph NNE12.9 kmh NNE 17.4 mph28.0 kmh 30.05 in1017.6 mb 0.00 in0.0 mm 0.00 in0.0 mm 0.00 in0.0 mm
04:30 PM 89.8°F32.1°C 54.3°F12.4°C 30% 8.3 mph N13.4 kmh N 22.1 mph35.6 kmh 30.04 in1017.3 mb 0.00 in0.0 mm 0.00 in0.0 mm 0.00 in0.0 mm
04:35 PM 89.4°F31.9°C 54.9°F12.7°C 31% 9.4 mph N15.1 kmh N 22.1 mph35.6 kmh 30.04 in1017.3 mb 0.00 in0.0 mm 0.00 in0.0 mm 0.00 in0.0 mm
04:40 PM 89.6°F32.0°C 54.1°F12.3°C 30% 9.3 mph N15.0 kmh N 16.8 mph27.0 kmh 30.04 in1017.3 mb 0.00 in0.0 mm 0.00 in0.0 mm 0.00 in0.0 mm
04:45 PM 89.6°F32.0°C 54.1°F12.3°C 30% 8.9 mph N14.3 kmh N 17.4 mph28.0 kmh 30.04 in1017.3 mb 0.00 in0.0 mm 0.00 in0.0 mm 0.00 in0.0 mm
04:50 PM 89.2°F31.8°C 53.8°F12.1°C 30% 9.1 mph NNW14.6 kmh NNW 19.0 mph30.6 kmh 30.04 in1017.3 mb 0.00 in0.0 mm 0.00 in0.0 mm 0.00 in0.0 mm
04:55 PM 88.9°F31.6°C 55.3°F12.9°C 32% 10.5 mph N16.9 kmh N 20.6 mph33.2 kmh 30.04 in1017.3 mb 0.00 in0.0 mm 0.00 in0.0 mm 0.00 in0.0 mm
05:00 PM 88.7°F31.5°C 55.1°F12.8°C 32% 10.9 mph N17.5 kmh N 20.6 mph33.2 kmh 30.04 in1017.3 mb 0.00 in0.0 mm 0.00 in0.0 mm 0.00 in0.0 mm
05:05 PM 88.9°F31.6°C 54.4°F12.4°C 31% 9.9 mph N15.9 kmh N 19.0 mph30.6 kmh 30.04 in1017.3 mb 0.00 in0.0 mm 0.00 in0.0 mm 0.00 in0.0 mm
05:10 PM 88.5°F31.4°C 54.1°F12.3°C 31% 10.9 mph NNW17.5 kmh NNW 19.0 mph30.6 kmh 30.04 in1017.3 mb 0.00 in0.0 mm 0.00 in0.0 mm 0.00 in0.0 mm
05:15 PM 88.3°F31.3°C 54.8°F12.7°C 32% 11.1 mph N17.9 kmh N 19.0 mph30.6 kmh 30.03 in1016.9 mb 0.00 in0.0 mm 0.00 in0.0 mm 0.00 in0.0 mm
05:20 PM 88.5°F31.4°C 55.0°F12.8°C 32% 9.7 mph N15.6 kmh N 18.3 mph29.5 kmh 30.03 in1016.9 mb 0.00 in0.0 mm 0.00 in0.0 mm 0.00 in0.0 mm
05:25 PM 88.3°F31.3°C 54.8°F12.7°C 32% 8.9 mph N14.3 kmh N 17.4 mph28.0 kmh 30.03 in1016.9 mb 0.00 in0.0 mm 0.00 in0.0 mm 0.00 in0.0 mm
05:30 PM 88.3°F31.3°C 54.8°F12.7°C 32% 7.6 mph N12.2 kmh N 16.8 mph27.0 kmh 30.03 in1016.9 mb 0.00 in0.0 mm 0.00 in0.0 mm 0.00 in0.0 mm
05:35 PM 88.2°F31.2°C 54.6°F12.6°C 32% 8.4 mph N13.5 kmh N 18.3 mph29.5 kmh 30.03 in1016.9 mb 0.00 in0.0 mm 0.00 in0.0 mm 0.00 in0.0 mm
05:40 PM 88.2°F31.2°C 55.5°F13.1°C 33% 8.0 mph N12.9 kmh N 18.3 mph29.5 kmh 30.02 in1016.6 mb 0.00 in0.0 mm 0.00 in0.0 mm 0.00 in0.0 mm
05:45 PM 88.0°F31.1°C 54.5°F12.5°C 32% 6.9 mph N11.1 kmh N 15.2 mph24.5 kmh 30.02 in1016.6 mb 0.00 in0.0 mm 0.00 in0.0 mm 0.00 in0.0 mm
05:50 PM 87.8°F31.0°C 53.5°F11.9°C 31% 8.1 mph N13.0 kmh N 15.9 mph25.6 kmh 30.03 in1016.9 mb 0.00 in0.0 mm 0.00 in0.0 mm 0.00 in0.0 mm
05:55 PM 87.6°F30.9°C 53.3°F11.8°C 31% 8.8 mph N14.2 kmh N 17.4 mph28.0 kmh 30.03 in1016.9 mb 0.00 in0.0 mm 0.00 in0.0 mm 0.00 in0.0 mm
06:00 PM 87.6°F30.9°C 54.2°F12.3°C 32% 8.0 mph N12.9 kmh N 17.4 mph28.0 kmh 30.02 in1016.6 mb 0.00 in0.0 mm 0.00 in0.0 mm 0.00 in0.0 mm
06:05 PM 87.4°F30.8°C 54.0°F12.2°C 32% 7.0 mph N11.3 kmh N 15.2 mph24.5 kmh 30.03 in1016.9 mb 0.00 in0.0 mm 0.00 in0.0 mm 0.00 in0.0 mm
06:10 PM 87.3°F30.7°C 54.7°F12.6°C 33% 7.1 mph N11.4 kmh N 15.2 mph24.5 kmh 30.03 in1016.9 mb 0.00 in0.0 mm 0.00 in0.0 mm 0.00 in0.0 mm
06:15 PM 87.1°F30.6°C 53.7°F12.1°C 32% 7.8 mph N12.6 kmh N 15.9 mph25.6 kmh 30.02 in1016.6 mb 0.00 in0.0 mm 0.00 in0.0 mm 0.00 in0.0 mm
06:20 PM 87.1°F30.6°C 53.7°F12.1°C 32% 7.6 mph N12.2 kmh N 15.9 mph25.6 kmh 30.03 in1016.9 mb 0.00 in0.0 mm 0.00 in0.0 mm 0.00 in0.0 mm
06:25 PM 87.1°F30.6°C 53.7°F12.1°C 32% 6.7 mph N10.8 kmh N 13.0 mph20.9 kmh 30.03 in1016.9 mb 0.00 in0.0 mm 0.00 in0.0 mm 0.00 in0.0 mm
06:30 PM 86.7°F30.4°C 53.4°F11.9°C 32% 7.1 mph NNW11.4 kmh NNW 15.9 mph25.6 kmh 30.03 in1016.9 mb 0.00 in0.0 mm 0.00 in0.0 mm 0.00 in0.0 mm
06:35 PM 86.5°F30.3°C 53.2°F11.8°C 32% 7.3 mph NNW11.7 kmh NNW 15.9 mph25.6 kmh 30.03 in1016.9 mb 0.00 in0.0 mm 0.00 in0.0 mm 0.00 in0.0 mm
06:40 PM 86.4°F30.2°C 53.1°F11.7°C 32% 7.5 mph N12.1 kmh N 15.9 mph25.6 kmh 30.03 in1016.9 mb 0.00 in0.0 mm 0.00 in0.0 mm 0.00 in0.0 mm
06:45 PM 86.2°F30.1°C 53.8°F12.1°C 33% 7.5 mph N12.1 kmh N 15.9 mph25.6 kmh 30.03 in1016.9 mb 0.00 in0.0 mm 0.00 in0.0 mm 0.00 in0.0 mm
06:50 PM 86.0°F30.0°C 53.6°F12.0°C 33% 7.0 mph N11.3 kmh N 15.2 mph24.5 kmh 30.02 in1016.6 mb 0.00 in0.0 mm 0.00 in0.0 mm 0.00 in0.0 mm
06:55 PM 85.6°F29.8°C 54.9°F12.7°C 35% 8.1 mph N13.0 kmh N 15.9 mph25.6 kmh 30.03 in1016.9 mb 0.00 in0.0 mm 0.00 in0.0 mm 0.00 in0.0 mm
07:00 PM 85.5°F29.7°C 54.7°F12.6°C 35% 9.1 mph N14.6 kmh N 16.8 mph27.0 kmh 30.03 in1016.9 mb 0.00 in0.0 mm 0.00 in0.0 mm 0.00 in0.0 mm
07:05 PM 85.1°F29.5°C 55.2°F12.9°C 36% 8.1 mph N13.0 kmh N 16.8 mph27.0 kmh 30.03 in1016.9 mb 0.00 in0.0 mm 0.00 in0.0 mm 0.00 in0.0 mm
07:10 PM 84.9°F29.4°C 55.0°F12.8°C 36% 7.5 mph N12.1 kmh N 15.2 mph24.5 kmh 30.03 in1016.9 mb 0.00 in0.0 mm 0.00 in0.0 mm 0.00 in0.0 mm
07:15 PM 84.7°F29.3°C 55.6°F13.1°C 37% 7.0 mph N11.3 kmh N 15.2 mph24.5 kmh 30.03 in1016.9 mb 0.00 in0.0 mm 0.00 in0.0 mm 0.00 in0.0 mm
07:20 PM 84.4°F29.1°C 55.3°F12.9°C 37% 5.9 mph N9.5 kmh N 11.4 mph18.3 kmh 30.03 in1016.9 mb 0.00 in0.0 mm 0.00 in0.0 mm 0.00 in0.0 mm
07:25 PM 84.2°F29.0°C 55.9°F13.3°C 38% 5.8 mph N9.3 kmh N 11.4 mph18.3 kmh 30.03 in1016.9 mb 0.00 in0.0 mm 0.00 in0.0 mm 0.00 in0.0 mm
07:30 PM 83.8°F28.8°C 57.0°F13.9°C 40% 4.6 mph NNW7.4 kmh NNW 11.4 mph18.3 kmh 30.02 in1016.6 mb 0.00 in0.0 mm 0.00 in0.0 mm 0.00 in0.0 mm
07:35 PM 83.5°F28.6°C 58.0°F14.4°C 42% 3.1 mph N5.0 kmh N 7.6 mph12.2 kmh 30.02 in1016.6 mb 0.00 in0.0 mm 0.00 in0.0 mm 0.00 in0.0 mm
07:40 PM 83.1°F28.4°C 59.0°F15.0°C 44% 3.0 mph N4.8 kmh N 7.6 mph12.2 kmh 30.02 in1016.6 mb 0.00 in0.0 mm 0.00 in0.0 mm 0.00 in0.0 mm
07:45 PM 82.9°F28.3°C 59.5°F15.3°C 45% 3.4 mph N5.5 kmh N 7.6 mph12.2 kmh 30.03 in1016.9 mb 0.00 in0.0 mm 0.00 in0.0 mm 0.00 in0.0 mm
07:50 PM 82.6°F28.1°C 59.1°F15.1°C 45% 3.0 mph N4.8 kmh N 6.9 mph11.1 kmh 30.02 in1016.6 mb 0.00 in0.0 mm 0.00 in0.0 mm 0.00 in0.0 mm
07:55 PM 82.4°F28.0°C 59.0°F15.0°C 45% 2.1 mph N3.4 kmh N 6.0 mph9.7 kmh 30.03 in1016.9 mb 0.00 in0.0 mm 0.00 in0.0 mm 0.00 in0.0 mm
08:00 PM 82.2°F27.9°C 59.4°F15.2°C 46% 1.7 mph N2.7 kmh N 3.8 mph6.1 kmh 30.03 in1016.9 mb 0.00 in0.0 mm 0.00 in0.0 mm 0.00 in0.0 mm
08:05 PM 82.0°F27.8°C 59.9°F15.5°C 47% 2.4 mph N3.9 kmh N 6.0 mph9.7 kmh 30.03 in1016.9 mb 0.00 in0.0 mm 0.00 in0.0 mm 0.00 in0.0 mm
08:10 PM 81.7°F27.6°C 59.5°F15.3°C 47% 2.7 mph N4.3 kmh N 6.0 mph9.7 kmh 30.02 in1016.6 mb 0.00 in0.0 mm 0.00 in0.0 mm 0.00 in0.0 mm
08:15 PM 81.5°F27.5°C 59.4°F15.2°C 47% 2.6 mph NNW4.2 kmh NNW 6.0 mph9.7 kmh 30.02 in1016.6 mb 0.00 in0.0 mm 0.00 in0.0 mm 0.00 in0.0 mm
08:20 PM 81.3°F27.4°C 59.8°F15.4°C 48% 3.6 mph NW5.8 kmh NW 8.3 mph13.4 kmh 30.03 in1016.9 mb 0.00 in0.0 mm 0.00 in0.0 mm 0.00 in0.0 mm
08:25 PM 81.3°F27.4°C 59.8°F15.4°C 48% 4.6 mph NW7.4 kmh NW 9.2 mph14.8 kmh 30.03 in1016.9 mb 0.00 in0.0 mm 0.00 in0.0 mm 0.00 in0.0 mm
08:30 PM 81.1°F27.3°C 59.6°F15.3°C 48% 4.7 mph NW7.6 kmh NW 9.8 mph15.8 kmh 30.03 in1016.9 mb 0.00 in0.0 mm 0.00 in0.0 mm 0.00 in0.0 mm
08:35 PM 81.1°F27.3°C 59.6°F15.3°C 48% 4.3 mph NNW6.9 kmh NNW 9.8 mph15.8 kmh 30.03 in1016.9 mb 0.00 in0.0 mm 0.00 in0.0 mm 0.00 in0.0 mm
08:40 PM 81.1°F27.3°C 59.0°F15.0°C 47% 4.5 mph NNW7.2 kmh NNW 9.8 mph15.8 kmh 30.03 in1016.9 mb 0.00 in0.0 mm 0.00 in0.0 mm 0.00 in0.0 mm
08:45 PM 81.1°F27.3°C 59.0°F15.0°C 47% 4.4 mph NW7.1 kmh NW 9.2 mph14.8 kmh 30.03 in1016.9 mb 0.00 in0.0 mm 0.00 in0.0 mm 0.00 in0.0 mm
08:50 PM 81.1°F27.3°C 59.0°F15.0°C 47% 3.9 mph NW6.3 kmh NW 9.2 mph14.8 kmh 30.03 in1016.9 mb 0.00 in0.0 mm 0.00 in0.0 mm 0.00 in0.0 mm
08:55 PM 81.0°F27.2°C 59.5°F15.3°C 48% 3.4 mph NW5.5 kmh NW 9.2 mph14.8 kmh 30.04 in1017.3 mb 0.00 in0.0 mm 0.00 in0.0 mm 0.00 in0.0 mm
09:00 PM 80.8°F27.1°C 58.7°F14.8°C 47% 3.3 mph NW5.3 kmh NW 9.2 mph14.8 kmh 30.03 in1016.9 mb 0.00 in0.0 mm 0.00 in0.0 mm 0.00 in0.0 mm
09:05 PM 80.8°F27.1°C 58.7°F14.8°C 47% 4.1 mph NW6.6 kmh NW 9.2 mph14.8 kmh 30.03 in1016.9 mb 0.00 in0.0 mm 0.00 in0.0 mm 0.00 in0.0 mm
09:10 PM 80.4°F26.9°C 58.4°F14.7°C 47% 4.1 mph NW6.6 kmh NW 8.3 mph13.4 kmh 30.04 in1017.3 mb 0.00 in0.0 mm 0.00 in0.0 mm 0.00 in0.0 mm
09:15 PM 80.4°F26.9°C 59.0°F15.0°C 48% 2.7 mph NW4.3 kmh NW 8.3 mph13.4 kmh 30.04 in1017.3 mb 0.00 in0.0 mm 0.00 in0.0 mm 0.00 in0.0 mm
09:20 PM 80.2°F26.8°C 58.8°F14.9°C 48% 2.0 mph NW3.2 kmh NW 8.3 mph13.4 kmh 30.03 in1016.9 mb 0.00 in0.0 mm 0.00 in0.0 mm 0.00 in0.0 mm
09:25 PM 80.1°F26.7°C 58.6°F14.8°C 48% 2.2 mph NW3.5 kmh NW 8.3 mph13.4 kmh 30.03 in1016.9 mb 0.00 in0.0 mm 0.00 in0.0 mm 0.00 in0.0 mm
09:30 PM 80.2°F26.8°C 58.8°F14.9°C 48% 2.4 mph NW3.9 kmh NW 6.9 mph11.1 kmh 30.03 in1016.9 mb 0.00 in0.0 mm 0.00 in0.0 mm 0.00 in0.0 mm
09:35 PM 80.2°F26.8°C 59.4°F15.2°C 49% 2.6 mph NNW4.2 kmh NNW 6.9 mph11.1 kmh 30.03 in1016.9 mb 0.00 in0.0 mm 0.00 in0.0 mm 0.00 in0.0 mm
09:40 PM 79.9°F26.6°C 59.1°F15.1°C 49% 2.5 mph NNW4.0 kmh NNW 7.6 mph12.2 kmh 30.03 in1016.9 mb 0.00 in0.0 mm 0.00 in0.0 mm 0.00 in0.0 mm
09:45 PM 80.1°F26.7°C 59.2°F15.1°C 49% 3.0 mph NNW4.8 kmh NNW 9.2 mph14.8 kmh 30.04 in1017.3 mb 0.00 in0.0 mm 0.00 in0.0 mm 0.00 in0.0 mm
09:50 PM 80.1°F26.7°C 59.2°F15.1°C 49% 2.7 mph NNW4.3 kmh NNW 9.2 mph14.8 kmh 30.03 in1016.9 mb 0.00 in0.0 mm 0.00 in0.0 mm 0.00 in0.0 mm
09:55 PM 80.1°F26.7°C 59.2°F15.1°C 49% 2.4 mph NNW3.9 kmh NNW 6.9 mph11.1 kmh 30.03 in1016.9 mb 0.00 in0.0 mm 0.00 in0.0 mm 0.00 in0.0 mm
10:00 PM 80.1°F26.7°C 59.2°F15.1°C 49% 2.6 mph NW4.2 kmh NW 7.6 mph12.2 kmh 30.04 in1017.3 mb 0.00 in0.0 mm 0.00 in0.0 mm 0.00 in0.0 mm
10:05 PM 80.1°F26.7°C 59.8°F15.4°C 50% 2.5 mph NW4.0 kmh NW 7.6 mph12.2 kmh 30.03 in1016.9 mb 0.00 in0.0 mm 0.00 in0.0 mm 0.00 in0.0 mm
10:10 PM 80.1°F26.7°C 59.8°F15.4°C 50% 2.4 mph NW3.9 kmh NW 7.6 mph12.2 kmh 30.03 in1016.9 mb 0.00 in0.0 mm 0.00 in0.0 mm 0.00 in0.0 mm
10:15 PM 80.1°F26.7°C 59.8°F15.4°C 50% 2.8 mph N4.5 kmh N 6.9 mph11.1 kmh 30.04 in1017.3 mb 0.00 in0.0 mm 0.00 in0.0 mm 0.00 in0.0 mm
10:20 PM 80.2°F26.8°C 59.4°F15.2°C 49% 3.1 mph NNW5.0 kmh NNW 6.9 mph11.1 kmh 30.03 in1016.9 mb 0.00 in0.0 mm 0.00 in0.0 mm 0.00 in0.0 mm
10:25 PM 80.2°F26.8°C 58.8°F14.9°C 48% 3.1 mph N5.0 kmh N 6.9 mph11.1 kmh 30.03 in1016.9 mb 0.00 in0.0 mm 0.00 in0.0 mm 0.00 in0.0 mm
10:30 PM 80.2°F26.8°C 58.8°F14.9°C 48% 3.5 mph NNW5.6 kmh NNW 6.9 mph11.1 kmh 30.03 in1016.9 mb 0.00 in0.0 mm 0.00 in0.0 mm 0.00 in0.0 mm
10:35 PM 80.6°F27.0°C 58.5°F14.7°C 47% 3.4 mph NNW5.5 kmh NNW 8.3 mph13.4 kmh 30.03 in1016.9 mb 0.00 in0.0 mm 0.00 in0.0 mm 0.00 in0.0 mm
10:40 PM 80.6°F27.0°C 58.5°F14.7°C 47% 3.5 mph N5.6 kmh N 8.3 mph13.4 kmh 30.02 in1016.6 mb 0.00 in0.0 mm 0.00 in0.0 mm 0.00 in0.0 mm
10:45 PM 80.6°F27.0°C 58.5°F14.7°C 47% 3.7 mph NNW6.0 kmh NNW 8.3 mph13.4 kmh 30.02 in1016.6 mb 0.00 in0.0 mm 0.00 in0.0 mm 0.00 in0.0 mm
10:50 PM 80.8°F27.1°C 58.7°F14.8°C 47% 3.8 mph NNW6.1 kmh NNW 8.3 mph13.4 kmh 30.03 in1016.9 mb 0.00 in0.0 mm 0.00 in0.0 mm 0.00 in0.0 mm
10:55 PM 80.6°F27.0°C 58.5°F14.7°C 47% 3.5 mph NNW5.6 kmh NNW 8.3 mph13.4 kmh 30.02 in1016.6 mb 0.00 in0.0 mm 0.00 in0.0 mm 0.00 in0.0 mm
11:00 PM 80.4°F26.9°C 58.4°F14.7°C 47% 3.0 mph NW4.8 kmh NW 8.3 mph13.4 kmh 30.02 in1016.6 mb 0.00 in0.0 mm 0.00 in0.0 mm 0.00 in0.0 mm
11:05 PM 80.1°F26.7°C 58.1°F14.5°C 47% 2.4 mph NNW3.9 kmh NNW 6.0 mph9.7 kmh 30.02 in1016.6 mb 0.00 in0.0 mm 0.00 in0.0 mm 0.00 in0.0 mm
11:10 PM 80.1°F26.7°C 58.1°F14.5°C 47% 2.6 mph N4.2 kmh N 8.3 mph13.4 kmh 30.02 in1016.6 mb 0.00 in0.0 mm 0.00 in0.0 mm 0.00 in0.0 mm
11:15 PM 80.2°F26.8°C 58.2°F14.6°C 47% 3.3 mph N5.3 kmh N 8.3 mph13.4 kmh 30.02 in1016.6 mb 0.00 in0.0 mm 0.00 in0.0 mm 0.00 in0.0 mm
11:20 PM 80.4°F26.9°C 58.4°F14.7°C 47% 3.9 mph NW6.3 kmh NW 9.2 mph14.8 kmh 30.02 in1016.6 mb 0.00 in0.0 mm 0.00 in0.0 mm 0.00 in0.0 mm
11:25 PM 80.6°F27.0°C 58.5°F14.7°C 47% 4.4 mph NNW7.1 kmh NNW 9.2 mph14.8 kmh 30.02 in1016.6 mb 0.00 in0.0 mm 0.00 in0.0 mm 0.00 in0.0 mm
11:30 PM 80.8°F27.1°C 58.7°F14.8°C 47% 4.3 mph N6.9 kmh N 9.2 mph14.8 kmh 30.02 in1016.6 mb 0.00 in0.0 mm 0.00 in0.0 mm 0.00 in0.0 mm
11:35 PM 80.6°F27.0°C 58.5°F14.7°C 47% 4.0 mph N6.4 kmh N 9.2 mph14.8 kmh 30.01 in1016.3 mb 0.00 in0.0 mm 0.00 in0.0 mm 0.00 in0.0 mm
11:40 PM 80.6°F27.0°C 58.5°F14.7°C 47% 3.6 mph N5.8 kmh N 7.6 mph12.2 kmh 30.01 in1016.3 mb 0.00 in0.0 mm 0.00 in0.0 mm 0.00 in0.0 mm
11:45 PM 80.6°F27.0°C 58.5°F14.7°C 47% 3.7 mph N6.0 kmh N 10.7 mph17.2 kmh 30.02 in1016.6 mb 0.00 in0.0 mm 0.00 in0.0 mm 0.00 in0.0 mm
11:50 PM 80.6°F27.0°C 58.5°F14.7°C 47% 3.9 mph NNW6.3 kmh NNW 10.7 mph17.2 kmh 30.01 in1016.3 mb 0.00 in0.0 mm 0.00 in0.0 mm 0.00 in0.0 mm
11:55 PM 80.6°F27.0°C 58.5°F14.7°C 47% 3.6 mph NNW5.8 kmh NNW 8.3 mph13.4 kmh 30.02 in1016.6 mb 0.00 in0.0 mm 0.00 in0.0 mm 0.00 in0.0 mm